sensor_id;sensor_type;location;lat;lon;timestamp;pressure;altitude;pressure_sealevel;temperature;humidity
4814;BME280;15375;48.540;9.268;2023-04-26T00:01:06;97384.13;;;6.60;100.00
4814;BME280;15375;48.540;9.268;2023-04-26T00:03:32;97352.81;;;6.41;100.00
4814;BME280;15375;48.540;9.268;2023-04-26T00:05:59;97382.59;;;6.56;100.00
4814;BME280;15375;48.540;9.268;2023-04-26T00:08:32;97381.44;;;6.53;100.00
4814;BME280;15375;48.540;9.268;2023-04-26T00:10:58;97341.97;;;6.34;100.00
4814;BME280;15375;48.540;9.268;2023-04-26T00:13:23;97350.47;;;6.40;100.00
4814;BME280;15375;48.540;9.268;2023-04-26T00:15:49;97370.19;;;6.58;100.00
4814;BME280;15375;48.540;9.268;2023-04-26T00:18:14;97382.56;;;6.63;100.00
4814;BME280;15375;48.540;9.268;2023-04-26T00:20:39;97361.31;;;6.47;100.00
4814;BME280;15375;48.540;9.268;2023-04-26T00:23:05;97353.19;;;6.22;100.00
4814;BME280;15375;48.540;9.268;2023-04-26T00:25:33;97339.31;;;6.06;100.00
4814;BME280;15375;48.540;9.268;2023-04-26T00:27:58;97376.41;;;6.20;100.00
4814;BME280;15375;48.540;9.268;2023-04-26T00:30:24;97365.59;;;6.20;100.00
4814;BME280;15375;48.540;9.268;2023-04-26T00:32:49;97371.78;;;6.24;100.00
4814;BME280;15375;48.540;9.268;2023-04-26T00:35:14;97378.72;;;6.32;100.00
4814;BME280;15375;48.540;9.268;2023-04-26T00:37:40;97359.00;;;6.00;100.00
4814;BME280;15375;48.540;9.268;2023-04-26T00:40:06;97340.41;;;5.80;100.00
4814;BME280;15375;48.540;9.268;2023-04-26T00:42:31;97379.13;;;5.99;100.00
4814;BME280;15375;48.540;9.268;2023-04-26T00:44:57;97370.97;;;5.92;100.00
4814;BME280;15375;48.540;9.268;2023-04-26T00:47:27;97348.91;;;5.79;100.00
4814;BME280;15375;48.540;9.268;2023-04-26T00:49:53;97348.91;;;5.79;100.00
4814;BME280;15375;48.540;9.268;2023-04-26T00:52:19;97379.47;;;5.87;100.00
4814;BME280;15375;48.540;9.268;2023-04-26T00:54:46;97362.78;;;5.56;100.00
4814;BME280;15375;48.540;9.268;2023-04-26T00:57:12;97382.13;;;5.62;100.00
4814;BME280;15375;48.540;9.268;2023-04-26T00:59:38;97358.13;;;5.43;100.00
4814;BME280;15375;48.540;9.268;2023-04-26T01:02:03;97382.50;;;5.64;100.00
4814;BME280;15375;48.540;9.268;2023-04-26T01:04:29;97348.81;;;5.37;100.00
4814;BME280;15375;48.540;9.268;2023-04-26T01:06:55;97388.31;;;5.55;100.00
4814;BME280;15375;48.540;9.268;2023-04-26T01:09:21;97358.88;;;5.36;100.00
4814;BME280;15375;48.540;9.268;2023-04-26T01:11:46;97354.19;;;5.15;100.00
4814;BME280;15375;48.540;9.268;2023-04-26T01:14:13;97350.28;;;5.06;100.00
4814;BME280;15375;48.540;9.268;2023-04-26T01:16:39;97372.72;;;5.17;100.00
4814;BME280;15375;48.540;9.268;2023-04-26T01:19:11;97373.50;;;5.18;100.00
4814;BME280;15375;48.540;9.268;2023-04-26T01:21:38;97380.06;;;5.20;100.00
4814;BME280;15375;48.540;9.268;2023-04-26T01:24:04;97382.72;;;5.02;100.00
4814;BME280;15375;48.540;9.268;2023-04-26T01:26:30;97394.28;;;4.96;100.00
4814;BME280;15375;48.540;9.268;2023-04-26T01:28:59;97398.88;;;4.92;100.00
4814;BME280;15375;48.540;9.268;2023-04-26T01:31:25;97393.81;;;4.83;100.00
4814;BME280;15375;48.540;9.268;2023-04-26T01:33:51;97353.13;;;4.59;100.00
4814;BME280;15375;48.540;9.268;2023-04-26T01:36:16;97323.38;;;4.51;100.00
4814;BME280;15375;48.540;9.268;2023-04-26T01:38:42;97368.28;;;4.77;100.00
4814;BME280;15375;48.540;9.268;2023-04-26T01:41:07;97309.00;;;4.30;100.00
4814;BME280;15375;48.540;9.268;2023-04-26T01:43:33;97395.75;;;4.83;100.00
4814;BME280;15375;48.540;9.268;2023-04-26T01:45:58;97371.28;;;4.58;100.00
4814;BME280;15375;48.540;9.268;2023-04-26T01:48:24;97394.19;;;4.82;100.00
4814;BME280;15375;48.540;9.268;2023-04-26T01:50:49;97378.31;;;4.77;100.00
4814;BME280;15375;48.540;9.268;2023-04-26T01:53:15;97370.97;;;4.74;100.00
4814;BME280;15375;48.540;9.268;2023-04-26T01:55:40;97386.47;;;4.84;100.00
4814;BME280;15375;48.540;9.268;2023-04-26T01:58:06;97346.59;;;4.60;100.00
4814;BME280;15375;48.540;9.268;2023-04-26T02:00:32;97348.59;;;4.77;100.00
4814;BME280;15375;48.540;9.268;2023-04-26T02:02:57;97380.38;;;4.97;100.00
4814;BME280;15375;48.540;9.268;2023-04-26T02:05:23;97364.91;;;4.94;100.00
4814;BME280;15375;48.540;9.268;2023-04-26T02:07:49;97340.16;;;4.85;100.00
4814;BME280;15375;48.540;9.268;2023-04-26T02:10:15;97376.16;;;5.03;100.00
4814;BME280;15375;48.540;9.268;2023-04-26T02:12:40;97368.00;;;4.96;100.00
4814;BME280;15375;48.540;9.268;2023-04-26T02:15:07;97357.19;;;4.96;100.00
4814;BME280;15375;48.540;9.268;2023-04-26T02:17:32;97363.00;;;4.98;100.00
4814;BME280;15375;48.540;9.268;2023-04-26T02:19:58;97344.31;;;4.69;100.00
4814;BME280;15375;48.540;9.268;2023-04-26T02:22:24;97372.56;;;4.78;100.00
4814;BME280;15375;48.540;9.268;2023-04-26T02:24:52;97377.19;;;4.81;100.00
4814;BME280;15375;48.540;9.268;2023-04-26T02:27:21;97346.19;;;4.61;100.00
4814;BME280;15375;48.540;9.268;2023-04-26T02:29:46;97353.19;;;4.66;100.00
4814;BME280;15375;48.540;9.268;2023-04-26T02:32:12;97382.09;;;4.62;100.00
4814;BME280;15375;48.540;9.268;2023-04-26T02:34:38;97354.91;;;4.33;100.00
4814;BME280;15375;48.540;9.268;2023-04-26T02:37:03;97354.84;;;4.26;100.00
4814;BME280;15375;48.540;9.268;2023-04-26T02:39:29;97370.34;;;4.36;100.00
4814;BME280;15375;48.540;9.268;2023-04-26T02:41:55;97359.13;;;4.27;100.00
4814;BME280;15375;48.540;9.268;2023-04-26T02:44:21;97379.63;;;4.39;100.00
4814;BME280;15375;48.540;9.268;2023-04-26T02:46:47;97374.56;;;4.30;100.00
4814;BME280;15375;48.540;9.268;2023-04-26T02:49:12;97268.06;;;3.66;100.00
4814;BME280;15375;48.540;9.268;2023-04-26T02:51:37;97315.63;;;3.88;100.00
4814;BME280;15375;48.540;9.268;2023-04-26T02:54:03;97346.88;;;3.93;100.00
4814;BME280;15375;48.540;9.268;2023-04-26T02:56:28;97347.66;;;3.90;100.00
4814;BME280;15375;48.540;9.268;2023-04-26T02:58:54;97398.28;;;4.07;100.00
4814;BME280;15375;48.540;9.268;2023-04-26T03:01:19;97354.13;;;3.82;100.00
4814;BME280;15375;48.540;9.268;2023-04-26T03:03:45;97404.78;;;3.99;100.00
4814;BME280;15375;48.540;9.268;2023-04-26T03:06:10;97371.00;;;3.72;100.00
4814;BME280;15375;48.540;9.268;2023-04-26T03:08:35;97357.41;;;3.61;100.00
4814;BME280;15375;48.540;9.268;2023-04-26T03:11:01;97398.16;;;3.90;100.00
4814;BME280;15375;48.540;9.268;2023-04-26T03:13:27;97368.25;;;3.68;100.00
4814;BME280;15375;48.540;9.268;2023-04-26T03:15:52;97369.44;;;3.71;100.00
4814;BME280;15375;48.540;9.268;2023-04-26T03:18:18;97373.03;;;3.85;100.00
4814;BME280;15375;48.540;9.268;2023-04-26T03:20:45;97381.22;;;3.96;100.00
4814;BME280;15375;48.540;9.268;2023-04-26T03:23:10;97381.63;;;3.98;100.00
4814;BME280;15375;48.540;9.268;2023-04-26T03:25:35;97373.06;;;3.89;100.00
4814;BME280;15375;48.540;9.268;2023-04-26T03:28:01;97390.09;;;3.97;100.00
4814;BME280;15375;48.540;9.268;2023-04-26T03:30:27;97391.97;;;3.89;100.00
4814;BME280;15375;48.540;9.268;2023-04-26T03:32:52;97359.38;;;3.64;100.00
4814;BME280;15375;48.540;9.268;2023-04-26T03:35:18;97390.72;;;3.79;100.00
4814;BME280;15375;48.540;9.268;2023-04-26T03:37:44;97345.19;;;3.34;100.00
4814;BME280;15375;48.540;9.268;2023-04-26T03:40:10;97362.34;;;3.56;100.00
4814;BME280;15375;48.540;9.268;2023-04-26T03:42:36;97334.56;;;3.48;100.00
4814;BME280;15375;48.540;9.268;2023-04-26T03:45:02;97359.72;;;3.59;100.00
4814;BME280;15375;48.540;9.268;2023-04-26T03:47:30;97378.72;;;3.73;100.00
4814;BME280;15375;48.540;9.268;2023-04-26T03:49:56;97369.50;;;3.78;100.00
4814;BME280;15375;48.540;9.268;2023-04-26T03:52:22;97322.53;;;3.39;100.00
4814;BME280;15375;48.540;9.268;2023-04-26T03:54:47;97263.47;;;2.86;100.00
4814;BME280;15375;48.540;9.268;2023-04-26T03:57:13;97377.09;;;3.65;100.00
4814;BME280;15375;48.540;9.268;2023-04-26T03:59:38;97384.34;;;3.58;100.00
4814;BME280;15375;48.540;9.268;2023-04-26T04:02:04;97364.84;;;3.35;100.00
4814;BME280;15375;48.540;9.268;2023-04-26T04:04:29;97384.19;;;3.44;100.00
4814;BME280;15375;48.540;9.268;2023-04-26T04:06:55;97361.72;;;3.33;100.00
4814;BME280;15375;48.540;9.268;2023-04-26T04:09:20;97358.97;;;3.26;100.00
4814;BME280;15375;48.540;9.268;2023-04-26T04:11:46;97369.00;;;3.29;100.00
4814;BME280;15375;48.540;9.268;2023-04-26T04:14:11;97368.28;;;3.32;100.00
4814;BME280;15375;48.540;9.268;2023-04-26T04:16:37;97390.72;;;3.43;100.00
4814;BME280;15375;48.540;9.268;2023-04-26T04:19:02;97367.50;;;3.31;100.00
4814;BME280;15375;48.540;9.268;2023-04-26T04:21:28;97394.69;;;3.52;100.00
4814;BME280;15375;48.540;9.268;2023-04-26T04:23:53;97345.88;;;3.28;100.00
4814;BME280;15375;48.540;9.268;2023-04-26T04:26:19;97365.38;;;3.47;100.00
4814;BME280;15375;48.540;9.268;2023-04-26T04:28:45;97334.38;;;3.31;100.00
4814;BME280;15375;48.540;9.268;2023-04-26T04:31:11;97373.16;;;3.56;100.00
4814;BME280;15375;48.540;9.268;2023-04-26T04:33:37;97357.63;;;3.46;100.00
4814;BME280;15375;48.540;9.268;2023-04-26T04:36:03;97393.69;;;3.67;100.00
4814;BME280;15375;48.540;9.268;2023-04-26T04:38:28;97369.25;;;3.50;100.00
4814;BME280;15375;48.540;9.268;2023-04-26T04:40:55;97410.63;;;3.68;100.00
4814;BME280;15375;48.540;9.268;2023-04-26T04:43:21;97379.72;;;3.58;100.00
4814;BME280;15375;48.540;9.268;2023-04-26T04:45:47;97353.75;;;3.43;100.00
4814;BME280;15375;48.540;9.268;2023-04-26T04:48:13;97366.63;;;3.60;100.00
4814;BME280;15375;48.540;9.268;2023-04-26T04:50:39;97394.22;;;3.83;100.00
4814;BME280;15375;48.540;9.268;2023-04-26T04:53:06;97393.94;;;3.96;100.00
4814;BME280;15375;48.540;9.268;2023-04-26T04:55:33;97371.66;;;4.02;100.00
4814;BME280;15375;48.540;9.268;2023-04-26T04:57:59;97357.81;;;4.11;100.00
4814;BME280;15375;48.540;9.268;2023-04-26T05:00:25;97392.78;;;4.44;100.00
4814;BME280;15375;48.540;9.268;2023-04-26T05:02:51;97373.06;;;4.36;100.00
4814;BME280;15375;48.540;9.268;2023-04-26T05:05:17;97388.56;;;4.43;100.00
4814;BME280;15375;48.540;9.268;2023-04-26T05:07:42;97392.19;;;4.68;100.00
4814;BME280;15375;48.540;9.268;2023-04-26T05:10:08;97390.16;;;4.55;100.00
4814;BME280;15375;48.540;9.268;2023-04-26T05:12:33;97409.50;;;4.64;100.00
4814;BME280;15375;48.540;9.268;2023-04-26T05:14:59;97375.06;;;4.43;100.00
4814;BME280;15375;48.540;9.268;2023-04-26T05:17:24;97394.78;;;4.50;100.00
4814;BME280;15375;48.540;9.268;2023-04-26T05:19:50;97385.84;;;4.46;100.00
4814;BME280;15375;48.540;9.268;2023-04-26T05:22:15;97408.28;;;4.54;100.00
4814;BME280;15375;48.540;9.268;2023-04-26T05:24:47;97400.97;;;4.55;100.00
4814;BME280;15375;48.540;9.268;2023-04-26T05:27:13;97401.00;;;4.58;100.00
4814;BME280;15375;48.540;9.268;2023-04-26T05:29:38;97391.69;;;4.52;100.00
4814;BME280;15375;48.540;9.268;2023-04-26T05:32:04;97392.53;;;4.67;100.00
4814;BME280;15375;48.540;9.268;2023-04-26T05:34:29;97419.56;;;5.49;100.00
4814;BME280;15375;48.540;9.268;2023-04-26T05:36:55;97410.84;;;6.09;100.00
4814;BME280;15375;48.540;9.268;2023-04-26T05:39:20;97396.13;;;5.85;100.00
4814;BME280;15375;48.540;9.268;2023-04-26T05:41:46;97413.94;;;6.11;100.00
4814;BME280;15375;48.540;9.268;2023-04-26T05:44:12;97408.50;;;5.97;100.00
4814;BME280;15375;48.540;9.268;2023-04-26T05:46:38;97315.53;;;5.01;100.00
4814;BME280;15375;48.540;9.268;2023-04-26T05:49:04;97355.34;;;5.18;100.00
4814;BME280;15375;48.540;9.268;2023-04-26T05:51:29;97441.78;;;5.97;100.00
4814;BME280;15375;48.540;9.268;2023-04-26T05:53:55;97396.44;;;5.69;100.00
4814;BME280;15375;48.540;9.268;2023-04-26T05:56:21;97428.19;;;5.76;100.00
4814;BME280;15375;48.540;9.268;2023-04-26T05:58:48;97423.94;;;5.78;100.00
4814;BME280;15375;48.540;9.268;2023-04-26T06:01:13;97417.81;;;6.13;100.00
4814;BME280;15375;48.540;9.268;2023-04-26T06:03:39;97425.16;;;6.62;100.00
4814;BME280;15375;48.540;9.268;2023-04-26T06:06:04;97437.16;;;6.72;100.00
4814;BME280;15375;48.540;9.268;2023-04-26T06:08:30;97446.47;;;6.74;100.00
4814;BME280;15375;48.540;9.268;2023-04-26T06:10:55;97404.25;;;6.66;100.00
4814;BME280;15375;48.540;9.268;2023-04-26T06:13:21;97401.59;;;6.24;100.00
4814;BME280;15375;48.540;9.268;2023-04-26T06:15:46;97437.94;;;6.51;100.00
4814;BME280;15375;48.540;9.268;2023-04-26T06:18:11;97346.16;;;5.61;100.00
4814;BME280;15375;48.540;9.268;2023-04-26T06:20:37;97425.16;;;6.27;100.00
4814;BME280;15375;48.540;9.268;2023-04-26T06:23:05;97408.91;;;6.44;100.00
4814;BME280;15375;48.540;9.268;2023-04-26T06:25:31;97442.53;;;6.93;100.00
4814;BME280;15375;48.540;9.268;2023-04-26T06:27:56;97430.31;;;8.30;100.00
4814;BME280;15375;48.540;9.268;2023-04-26T06:30:22;97424.47;;;8.31;100.00
4814;BME280;15375;48.540;9.268;2023-04-26T06:32:48;97437.72;;;8.19;100.00
4814;BME280;15375;48.540;9.268;2023-04-26T06:35:13;97414.03;;;8.19;100.00
4814;BME280;15375;48.540;9.268;2023-04-26T06:37:39;97430.47;;;9.01;100.00
4814;BME280;15375;48.540;9.268;2023-04-26T06:40:05;97429.69;;;9.64;100.00
4814;BME280;15375;48.540;9.268;2023-04-26T06:42:30;97430.31;;;10.59;97.24
4814;BME280;15375;48.540;9.268;2023-04-26T06:44:56;97436.00;;;10.92;91.62
4814;BME280;15375;48.540;9.268;2023-04-26T06:47:21;97449.81;;;11.63;91.00
4814;BME280;15375;48.540;9.268;2023-04-26T06:49:46;97440.34;;;11.09;83.05
4814;BME280;15375;48.540;9.268;2023-04-26T06:52:12;97459.47;;;10.62;82.47
4814;BME280;15375;48.540;9.268;2023-04-26T06:54:37;97438.41;;;10.13;85.93
4814;BME280;15375;48.540;9.268;2023-04-26T06:57:02;97458.03;;;10.01;82.31
4814;BME280;15375;48.540;9.268;2023-04-26T06:59:28;97447.78;;;8.77;83.78
4814;BME280;15375;48.540;9.268;2023-04-26T07:01:53;97410.78;;;8.42;88.30
4814;BME280;15375;48.540;9.268;2023-04-26T07:04:19;97448.03;;;8.93;93.03
4814;BME280;15375;48.540;9.268;2023-04-26T07:06:48;97449.88;;;9.03;90.55
4814;BME280;15375;48.540;9.268;2023-04-26T07:09:13;97413.72;;;8.65;91.96
4814;BME280;15375;48.540;9.268;2023-04-26T07:11:39;97413.91;;;8.81;93.87
4814;BME280;15375;48.540;9.268;2023-04-26T07:14:04;97408.97;;;9.10;88.66
4814;BME280;15375;48.540;9.268;2023-04-26T07:16:29;97411.75;;;9.40;82.25
4814;BME280;15375;48.540;9.268;2023-04-26T07:18:55;97433.81;;;9.12;84.76
4814;BME280;15375;48.540;9.268;2023-04-26T07:21:24;97420.88;;;9.23;87.05
4814;BME280;15375;48.540;9.268;2023-04-26T07:23:54;97394.94;;;9.76;84.86
4814;BME280;15375;48.540;9.268;2023-04-26T07:26:21;97438.72;;;10.45;83.87
4814;BME280;15375;48.540;9.268;2023-04-26T07:28:46;97430.66;;;10.61;81.51
4814;BME280;15375;48.540;9.268;2023-04-26T07:31:12;97406.94;;;10.08;77.72
4814;BME280;15375;48.540;9.268;2023-04-26T07:33:38;97401.22;;;9.99;78.78
4814;BME280;15375;48.540;9.268;2023-04-26T07:36:03;97426.19;;;10.48;80.01
4814;BME280;15375;48.540;9.268;2023-04-26T07:38:29;97416.41;;;10.27;79.43
4814;BME280;15375;48.540;9.268;2023-04-26T07:40:54;97405.13;;;10.25;79.69
4814;BME280;15375;48.540;9.268;2023-04-26T07:43:20;97383.91;;;10.13;75.02
4814;BME280;15375;48.540;9.268;2023-04-26T07:45:46;97393.19;;;10.19;75.06
4814;BME280;15375;48.540;9.268;2023-04-26T07:48:11;97399.22;;;10.30;74.48
4814;BME280;15375;48.540;9.268;2023-04-26T07:50:37;97388.91;;;10.41;75.32
4814;BME280;15375;48.540;9.268;2023-04-26T07:53:02;97409.97;;;10.87;73.65
4814;BME280;15375;48.540;9.268;2023-04-26T07:55:28;97407.03;;;11.76;73.35
4814;BME280;15375;48.540;9.268;2023-04-26T07:57:53;97387.75;;;12.35;67.30
4814;BME280;15375;48.540;9.268;2023-04-26T08:00:19;97385.75;;;12.52;68.40
4814;BME280;15375;48.540;9.268;2023-04-26T08:02:46;97390.03;;;12.04;66.78
4814;BME280;15375;48.540;9.268;2023-04-26T08:05:12;97382.63;;;11.69;67.46
4814;BME280;15375;48.540;9.268;2023-04-26T08:07:38;97402.97;;;11.65;71.72
4814;BME280;15375;48.540;9.268;2023-04-26T08:10:04;97423.03;;;11.78;71.29
4814;BME280;15375;48.540;9.268;2023-04-26T08:12:29;97377.44;;;11.75;67.17
4814;BME280;15375;48.540;9.268;2023-04-26T08:15:01;97415.25;;;12.44;65.96
4814;BME280;15375;48.540;9.268;2023-04-26T08:17:27;97414.50;;;12.60;65.44
4814;BME280;15375;48.540;9.268;2023-04-26T08:19:52;97391.81;;;12.11;66.85
4814;BME280;15375;48.540;9.268;2023-04-26T08:22:17;97404.94;;;12.36;66.12
4814;BME280;15375;48.540;9.268;2023-04-26T08:24:53;97392.19;;;12.45;63.54
4814;BME280;15375;48.540;9.268;2023-04-26T08:27:19;97414.78;;;12.94;63.60
4814;BME280;15375;48.540;9.268;2023-04-26T08:29:45;97416.28;;;12.82;62.06
4814;BME280;15375;48.540;9.268;2023-04-26T08:32:10;97388.53;;;12.36;59.67
4814;BME280;15375;48.540;9.268;2023-04-26T08:34:35;97390.47;;;12.03;62.20
4814;BME280;15375;48.540;9.268;2023-04-26T08:37:01;97398.41;;;12.62;61.17
4814;BME280;15375;48.540;9.268;2023-04-26T08:39:26;97426.06;;;13.12;60.81
4814;BME280;15375;48.540;9.268;2023-04-26T08:41:53;97408.75;;;12.70;57.30
4814;BME280;15375;48.540;9.268;2023-04-26T08:44:23;97419.63;;;12.58;59.19
4814;BME280;15375;48.540;9.268;2023-04-26T08:49:44;97429.47;;;12.55;60.94
4814;BME280;15375;48.540;9.268;2023-04-26T08:52:13;97417.81;;;13.70;55.82
4814;BME280;15375;48.540;9.268;2023-04-26T08:54:40;97411.25;;;13.80;52.41
4814;BME280;15375;48.540;9.268;2023-04-26T08:57:07;97421.84;;;14.06;54.08
4814;BME280;15375;48.540;9.268;2023-04-26T08:59:35;97409.06;;;13.75;52.18
4814;BME280;15375;48.540;9.268;2023-04-26T09:02:09;97415.19;;;13.66;52.49
4814;BME280;15375;48.540;9.268;2023-04-26T09:04:35;97422.13;;;13.71;52.44
4814;BME280;15375;48.540;9.268;2023-04-26T09:07:02;97396.66;;;13.70;50.38
4814;BME280;15375;48.540;9.268;2023-04-26T09:09:33;97409.88;;;12.73;52.63
4814;BME280;15375;48.540;9.268;2023-04-26T09:11:59;97427.41;;;14.03;55.31
4814;BME280;15375;48.540;9.268;2023-04-26T09:14:26;97426.34;;;14.63;56.24
4814;BME280;15375;48.540;9.268;2023-04-26T09:16:52;97411.63;;;13.94;52.91
4814;BME280;15375;48.540;9.268;2023-04-26T09:19:35;97431.13;;;14.85;53.97
4814;BME280;15375;48.540;9.268;2023-04-26T09:22:01;97404.56;;;14.82;50.77
4814;BME280;15375;48.540;9.268;2023-04-26T09:24:45;97414.41;;;14.92;50.07
4814;BME280;15375;48.540;9.268;2023-04-26T09:27:11;97390.78;;;14.10;49.41
4814;BME280;15375;48.540;9.268;2023-04-26T09:29:37;97366.97;;;13.27;51.12
4814;BME280;15375;48.540;9.268;2023-04-26T09:32:02;97400.34;;;13.38;53.92
4814;BME280;15375;48.540;9.268;2023-04-26T09:34:28;97411.97;;;12.98;52.45
4814;BME280;15375;48.540;9.268;2023-04-26T09:36:55;97411.66;;;13.53;55.67
4814;BME280;15375;48.540;9.268;2023-04-26T09:39:35;97381.88;;;12.81;56.79
4814;BME280;15375;48.540;9.268;2023-04-26T09:42:03;97384.31;;;13.37;55.37
4814;BME280;15375;48.540;9.268;2023-04-26T09:44:29;97410.09;;;14.06;55.73
4814;BME280;15375;48.540;9.268;2023-04-26T09:47:02;97404.16;;;14.20;55.12
4814;BME280;15375;48.540;9.268;2023-04-26T09:49:49;97396.91;;;13.34;56.79
4814;BME280;15375;48.540;9.268;2023-04-26T09:52:17;97359.63;;;13.78;51.20
4814;BME280;15375;48.540;9.268;2023-04-26T09:54:48;97372.47;;;13.94;52.19
4814;BME280;15375;48.540;9.268;2023-04-26T09:57:15;97388.03;;;13.72;49.30
4814;BME280;15375;48.540;9.268;2023-04-26T09:59:46;97387.66;;;13.70;52.89
4814;BME280;15375;48.540;9.268;2023-04-26T10:02:22;97392.53;;;13.91;53.46
4814;BME280;15375;48.540;9.268;2023-04-26T10:04:50;97386.44;;;14.37;49.59
4814;BME280;15375;48.540;9.268;2023-04-26T10:07:17;97385.47;;;14.65;48.90
4814;BME280;15375;48.540;9.268;2023-04-26T10:09:44;97394.16;;;14.98;49.15
4814;BME280;15375;48.540;9.268;2023-04-26T10:12:12;97366.13;;;14.35;47.40
4814;BME280;15375;48.540;9.268;2023-04-26T10:14:38;97353.34;;;13.65;49.75
4814;BME280;15375;48.540;9.268;2023-04-26T10:17:04;97373.34;;;14.41;52.59
4814;BME280;15375;48.540;9.268;2023-04-26T10:19:31;97381.88;;;15.24;50.91
4814;BME280;15375;48.540;9.268;2023-04-26T10:22:03;97374.66;;;14.84;48.49
4814;BME280;15375;48.540;9.268;2023-04-26T10:24:29;97374.00;;;15.14;49.04
4814;BME280;15375;48.540;9.268;2023-04-26T10:26:55;97384.06;;;15.08;49.59
4814;BME280;15375;48.540;9.268;2023-04-26T10:29:24;97347.19;;;14.62;45.28
4814;BME280;15375;48.540;9.268;2023-04-26T10:32:03;97378.81;;;13.78;46.85
4814;BME280;15375;48.540;9.268;2023-04-26T10:34:31;97378.25;;;13.71;47.10
4814;BME280;15375;48.540;9.268;2023-04-26T10:39:30;97366.38;;;13.49;48.75
4814;BME280;15375;48.540;9.268;2023-04-26T10:42:25;97370.50;;;14.07;51.06
4814;BME280;15375;48.540;9.268;2023-04-26T10:44:58;97374.47;;;14.31;51.86
4814;BME280;15375;48.540;9.268;2023-04-26T10:47:34;97348.75;;;14.13;51.58
4814;BME280;15375;48.540;9.268;2023-04-26T10:50:02;97351.41;;;14.41;48.64
4814;BME280;15375;48.540;9.268;2023-04-26T10:52:28;97360.91;;;14.96;48.87
4814;BME280;15375;48.540;9.268;2023-04-26T10:54:58;97353.13;;;14.48;47.14
4814;BME280;15375;48.540;9.268;2023-04-26T10:57:46;97346.22;;;14.90;45.69
4814;BME280;15375;48.540;9.268;2023-04-26T11:00:17;97346.03;;;14.00;44.95
4814;BME280;15375;48.540;9.268;2023-04-26T11:02:45;97352.19;;;14.76;45.99
4814;BME280;15375;48.540;9.268;2023-04-26T11:08:19;97317.97;;;13.83;45.81
4814;BME280;15375;48.540;9.268;2023-04-26T11:13:29;97344.59;;;13.95;47.26
4814;BME280;15375;48.540;9.268;2023-04-26T11:16:05;97331.69;;;14.55;48.13
4814;BME280;15375;48.540;9.268;2023-04-26T11:18:32;97344.25;;;15.12;49.39
4814;BME280;15375;48.540;9.268;2023-04-26T11:20:57;97339.66;;;15.53;47.92
4814;BME280;15375;48.540;9.268;2023-04-26T11:23:24;97332.03;;;15.13;46.89
4814;BME280;15375;48.540;9.268;2023-04-26T11:25:50;97298.81;;;14.77;49.13
4814;BME280;15375;48.540;9.268;2023-04-26T11:28:17;97324.28;;;14.18;49.95
4814;BME280;15375;48.540;9.268;2023-04-26T11:30:43;97328.06;;;14.58;49.28
4814;BME280;15375;48.540;9.268;2023-04-26T11:33:15;97329.44;;;14.76;48.61
4814;BME280;15375;48.540;9.268;2023-04-26T11:35:48;97340.50;;;14.25;50.78
4814;BME280;15375;48.540;9.268;2023-04-26T11:38:14;97336.69;;;14.23;50.23
4814;BME280;15375;48.540;9.268;2023-04-26T11:40:40;97304.25;;;13.96;46.30
4814;BME280;15375;48.540;9.268;2023-04-26T11:43:07;97309.72;;;14.08;47.19
4814;BME280;15375;48.540;9.268;2023-04-26T11:45:34;97307.28;;;14.11;45.91
4814;BME280;15375;48.540;9.268;2023-04-26T11:48:09;97308.63;;;12.73;47.03
4814;BME280;15375;48.540;9.268;2023-04-26T11:50:37;97295.69;;;13.56;46.39
4814;BME280;15375;48.540;9.268;2023-04-26T11:53:05;97291.41;;;13.01;48.60
4814;BME280;15375;48.540;9.268;2023-04-26T11:55:31;97283.75;;;12.96;48.43
4814;BME280;15375;48.540;9.268;2023-04-26T11:58:09;97283.50;;;13.82;47.91
4814;BME280;15375;48.540;9.268;2023-04-26T12:00:34;97296.94;;;14.52;48.22
4814;BME280;15375;48.540;9.268;2023-04-26T12:03:04;97283.06;;;14.09;45.96
4814;BME280;15375;48.540;9.268;2023-04-26T12:05:35;97267.88;;;14.42;46.25
4814;BME280;15375;48.540;9.268;2023-04-26T12:08:00;97270.34;;;14.02;47.45
4814;BME280;15375;48.540;9.268;2023-04-26T12:10:28;97239.66;;;13.44;46.17
4814;BME280;15375;48.540;9.268;2023-04-26T12:12:58;97287.09;;;14.42;46.34
4814;BME280;15375;48.540;9.268;2023-04-26T12:15:28;97286.03;;;14.61;47.36
4814;BME280;15375;48.540;9.268;2023-04-26T12:18:05;97274.66;;;14.94;46.59
4814;BME280;15375;48.540;9.268;2023-04-26T12:20:32;97277.22;;;14.66;47.09
4814;BME280;15375;48.540;9.268;2023-04-26T12:23:09;97273.22;;;15.02;49.00
4814;BME280;15375;48.540;9.268;2023-04-26T12:25:38;97265.03;;;14.89;45.67
4814;BME280;15375;48.540;9.268;2023-04-26T12:28:05;97285.00;;;14.21;49.86
4814;BME280;15375;48.540;9.268;2023-04-26T12:30:36;97291.88;;;13.79;50.81
4814;BME280;15375;48.540;9.268;2023-04-26T12:33:01;97284.44;;;14.26;48.15
4814;BME280;15375;48.540;9.268;2023-04-26T12:35:27;97255.28;;;14.32;46.26
4814;BME280;15375;48.540;9.268;2023-04-26T12:37:52;97257.31;;;14.75;46.58
4814;BME280;15375;48.540;9.268;2023-04-26T12:40:20;97269.69;;;14.80;45.67
4814;BME280;15375;48.540;9.268;2023-04-26T12:42:46;97268.44;;;15.24;46.29
4814;BME280;15375;48.540;9.268;2023-04-26T12:45:12;97268.41;;;15.67;47.48
4814;BME280;15375;48.540;9.268;2023-04-26T12:47:37;97237.75;;;14.73;43.92
4814;BME280;15375;48.540;9.268;2023-04-26T12:50:03;97267.09;;;14.42;49.71
4814;BME280;15375;48.540;9.268;2023-04-26T12:52:29;97280.16;;;15.15;52.03
4814;BME280;15375;48.540;9.268;2023-04-26T12:54:55;97257.50;;;15.55;45.68
4814;BME280;15375;48.540;9.268;2023-04-26T12:57:20;97258.66;;;15.84;45.45
4814;BME280;15375;48.540;9.268;2023-04-26T12:59:46;97254.53;;;15.80;45.61
4814;BME280;15375;48.540;9.268;2023-04-26T13:02:11;97254.00;;;15.63;48.15
4814;BME280;15375;48.540;9.268;2023-04-26T13:04:37;97238.53;;;15.87;47.63
4814;BME280;15375;48.540;9.268;2023-04-26T13:07:03;97253.66;;;15.92;44.42
4814;BME280;15375;48.540;9.268;2023-04-26T13:09:28;97238.69;;;15.22;45.97
4814;BME280;15375;48.540;9.268;2023-04-26T13:11:54;97257.78;;;15.96;48.26
4814;BME280;15375;48.540;9.268;2023-04-26T13:14:19;97228.50;;;16.39;41.63
4814;BME280;15375;48.540;9.268;2023-04-26T13:16:47;97229.16;;;15.76;42.68
4814;BME280;15375;48.540;9.268;2023-04-26T13:19:13;97245.75;;;15.63;45.42
4814;BME280;15375;48.540;9.268;2023-04-26T13:21:38;97246.13;;;15.13;44.43